Time;durP1;ratioP1;P1;durP2;ratioP2;P2;SDS_P1;SDS_P2;PMS_P1;PMS_P2;Temp;Humidity;BMP_temperature;BMP_pressure;BME280_temperature;BME280_humidity;BME280_pressure;Samples;Min_cycle;Max_cycle;Signal;HPM_P1;HPM_P2
2023/03/05 00:02:15;;;;;;;14.10;12.70;;;;;;;;;;5141904;27;20278;-59
2023/03/05 00:04:42;;;;;;;14.48;13.07;;;;;;;;;;5142282;27;20251;-59
2023/03/05 00:07:11;;;;;;;14.32;12.93;;;;;;;;;;5141424;27;20308;-59
2023/03/05 00:09:40;;;;;;;13.15;11.90;;;;;;;;;;5141460;27;20213;-60
2023/03/05 00:12:07;;;;;;;13.43;12.20;;;;;;;;;;5141393;27;20608;-59
2023/03/05 00:14:35;;;;;;;12.15;11.05;;;;;;;;;;5141455;27;20234;-59
2023/03/05 00:17:02;;;;;;;12.98;11.68;;;;;;;;;;5141446;27;20324;-59
2023/03/05 00:19:30;;;;;;;11.82;10.73;;;;;;;;;;5140738;27;20202;-60
2023/03/05 00:21:58;;;;;;;12.10;10.82;;;;;;;;;;5141006;27;20234;-58
2023/03/05 00:24:25;;;;;;;11.07;9.88;;;;;;;;;;5141644;27;20285;-59
2023/03/05 00:26:54;;;;;;;10.98;9.85;;;;;;;;;;5142020;27;20334;-59
2023/03/05 00:29:22;;;;;;;11.50;10.30;;;;;;;;;;5141275;27;20629;-59
2023/03/05 00:31:49;;;;;;;11.63;9.95;;;;;;;;;;5141712;27;20237;-59
2023/03/05 00:34:18;;;;;;;10.18;9.15;;;;;;;;;;5141763;27;20593;-59
2023/03/05 00:36:46;;;;;;;10.02;9.02;;;;;;;;;;5141012;27;20771;-59
2023/03/05 00:39:16;;;;;;;10.20;8.77;;;;;;;;;;5140970;27;20237;-58
2023/03/05 00:41:43;;;;;;;9.95;8.32;;;;;;;;;;5141484;27;20309;-58
2023/03/05 00:44:12;;;;;;;10.35;9.07;;;;;;;;;;5141256;27;20293;-59
2023/03/05 00:46:40;;;;;;;9.45;8.55;;;;;;;;;;5141558;27;20237;-58
2023/03/05 00:49:08;;;;;;;8.10;7.30;;;;;;;;;;5141245;27;20285;-59
2023/03/05 00:51:36;;;;;;;9.30;8.30;;;;;;;;;;5141360;27;20297;-59
2023/03/05 00:54:04;;;;;;;7.68;7.00;;;;;;;;;;5141229;27;20227;-59
2023/03/05 00:56:31;;;;;;;8.55;7.68;;;;;;;;;;5141000;27;20325;-61
2023/03/05 00:58:59;;;;;;;7.90;7.10;;;;;;;;;;5140949;27;20301;-59
2023/03/05 01:01:28;;;;;;;8.23;7.43;;;;;;;;;;5140261;27;20298;-59
2023/03/05 01:03:58;;;;;;;8.30;6.88;;;;;;;;;;5140803;27;20206;-59
2023/03/05 01:06:25;;;;;;;7.72;6.68;;;;;;;;;;5160700;27;20228;-59
2023/03/05 01:08:53;;;;;;;7.10;6.38;;;;;;;;;;5161191;27;20280;-58
2023/03/05 01:11:20;;;;;;;6.68;6.07;;;;;;;;;;5161372;27;20308;-58
2023/03/05 01:13:48;;;;;;;6.80;6.18;;;;;;;;;;5161053;27;20280;-58
2023/03/05 01:16:15;;;;;;;6.82;6.10;;;;;;;;;;5161460;27;20221;-58
2023/03/05 01:18:45;;;;;;;8.10;5.82;;;;;;;;;;5161999;27;20221;-59
2023/03/05 01:21:12;;;;;;;6.55;5.85;;;;;;;;;;5161160;27;20596;-58
2023/03/05 01:23:39;;;;;;;6.40;5.80;;;;;;;;;;5161812;27;20292;-60
2023/03/05 01:26:07;;;;;;;6.05;5.45;;;;;;;;;;5158090;27;20615;-61
2023/03/05 01:28:36;;;;;;;5.57;5.03;;;;;;;;;;5161550;27;20494;-58
2023/03/05 01:31:07;;;;;;;5.72;5.13;;;;;;;;;;5161593;27;20544;-60
2023/03/05 01:33:35;;;;;;;5.25;4.75;;;;;;;;;;5161290;27;20292;-58
2023/03/05 01:36:07;;;;;;;5.07;4.60;;;;;;;;;;5160703;27;20312;-59
2023/03/05 01:38:34;;;;;;;5.40;4.82;;;;;;;;;;5151002;27;20281;-60
2023/03/05 01:41:01;;;;;;;4.63;4.18;;;;;;;;;;5140358;27;20286;-59
2023/03/05 01:43:30;;;;;;;4.90;4.40;;;;;;;;;;5140218;27;20241;-58
2023/03/05 01:46:30;;;;;;;4.93;4.43;;;;;;;;;;5140429;27;20293;-58
2023/03/05 01:49:10;;;;;;;4.90;4.40;;;;;;;;;;5057404;28;20205;-59
2023/03/05 01:51:41;;;;;;;4.40;4.00;;;;;;;;;;5057250;28;20300;-59
2023/03/05 01:54:09;;;;;;;4.38;3.97;;;;;;;;;;5091358;28;20217;-58
2023/03/05 01:56:37;;;;;;;4.15;3.75;;;;;;;;;;5119311;28;20713;-58
2023/03/05 01:59:05;;;;;;;4.53;3.65;;;;;;;;;;5119461;28;20255;-60
2023/03/05 02:01:34;;;;;;;4.70;3.78;;;;;;;;;;5119533;28;20246;-60
2023/03/05 02:04:02;;;;;;;4.97;3.90;;;;;;;;;;5119093;28;20246;-60
2023/03/05 02:06:30;;;;;;;3.90;3.60;;;;;;;;;;5119090;28;20231;-58
2023/03/05 02:09:00;;;;;;;4.32;3.92;;;;;;;;;;5119488;28;20207;-60
2023/03/05 02:11:27;;;;;;;3.63;3.33;;;;;;;;;;5119049;28;20299;-60
2023/03/05 02:13:55;;;;;;;3.67;3.15;;;;;;;;;;5119065;28;20321;-61
2023/03/05 02:16:22;;;;;;;3.40;2.95;;;;;;;;;;5119185;28;20691;-60
2023/03/05 02:18:50;;;;;;;3.47;3.17;;;;;;;;;;5119303;28;20253;-60
2023/03/05 02:21:28;;;;;;;3.55;3.25;;;;;;;;;;5125586;27;20288;-59
2023/03/05 02:23:55;;;;;;;4.70;3.28;;;;;;;;;;5139580;27;20225;-60
2023/03/05 02:26:22;;;;;;;3.15;2.85;;;;;;;;;;5139305;27;20301;-60
2023/03/05 02:28:51;;;;;;;3.33;3.03;;;;;;;;;;5139155;27;20195;-59
2023/03/05 02:31:19;;;;;;;3.00;2.70;;;;;;;;;;5139051;27;20276;-58
2023/03/05 02:33:47;;;;;;;2.67;2.42;;;;;;;;;;5136457;27;20305;-58
2023/03/05 02:36:15;;;;;;;2.92;2.63;;;;;;;;;;5148515;27;20232;-58
2023/03/05 02:38:45;;;;;;;2.60;2.25;;;;;;;;;;5133410;27;20614;-60
2023/03/05 02:41:14;;;;;;;3.78;2.58;;;;;;;;;;5126281;27;20233;-60
2023/03/05 02:43:41;;;;;;;9.43;2.33;;;;;;;;;;5139533;27;20535;-60
2023/03/05 02:46:09;;;;;;;2.95;2.70;;;;;;;;;;5139040;27;20681;-59
2023/03/05 02:48:36;;;;;;;3.15;2.33;;;;;;;;;;5138894;27;20251;-58
2023/03/05 02:51:04;;;;;;;3.13;2.38;;;;;;;;;;5138662;27;20234;-58
2023/03/05 02:53:31;;;;;;;2.50;2.30;;;;;;;;;;5139507;27;20202;-59
2023/03/05 02:56:00;;;;;;;2.40;2.20;;;;;;;;;;5139211;27;20226;-58
2023/03/05 02:58:28;;;;;;;2.60;2.40;;;;;;;;;;5139844;27;20205;-59
2023/03/05 03:00:55;;;;;;;4.30;2.50;;;;;;;;;;5138660;27;20296;-58
2023/03/05 03:03:23;;;;;;;2.47;2.10;;;;;;;;;;5138850;27;20250;-61
2023/03/05 03:05:52;;;;;;;2.20;2.00;;;;;;;;;;5138995;27;20202;-59
2023/03/05 03:08:20;;;;;;;2.28;1.95;;;;;;;;;;5137560;27;20213;-58
2023/03/05 03:10:47;;;;;;;2.72;2.05;;;;;;;;;;5120175;27;20301;-59
2023/03/05 03:13:16;;;;;;;2.47;2.28;;;;;;;;;;5124050;28;20286;-61
2023/03/05 03:15:43;;;;;;;2.20;2.00;;;;;;;;;;5138809;27;20238;-58
2023/03/05 03:18:11;;;;;;;2.00;1.80;;;;;;;;;;5138913;27;20249;-58
2023/03/05 03:20:39;;;;;;;2.10;1.83;;;;;;;;;;5130614;27;20276;-58
2023/03/05 03:23:07;;;;;;;2.28;2.08;;;;;;;;;;5138384;27;20578;-60
2023/03/05 03:25:34;;;;;;;2.30;2.05;;;;;;;;;;5134377;27;20488;-60
2023/03/05 03:28:02;;;;;;;1.70;1.60;;;;;;;;;;5139075;27;20297;-59
2023/03/05 03:30:31;;;;;;;2.63;1.77;;;;;;;;;;5133817;27;20644;-59
2023/03/05 03:32:58;;;;;;;1.92;1.70;;;;;;;;;;5138931;27;20585;-59
2023/03/05 03:35:26;;;;;;;2.20;1.67;;;;;;;;;;5138933;27;20198;-59
2023/03/05 03:37:53;;;;;;;2.25;1.63;;;;;;;;;;5134112;27;20301;-59
2023/03/05 03:40:21;;;;;;;1.90;1.60;;;;;;;;;;5142842;27;20534;-59
2023/03/05 03:42:48;;;;;;;1.60;1.50;;;;;;;;;;5142241;27;20281;-59
2023/03/05 03:45:16;;;;;;;1.70;1.60;;;;;;;;;;5142850;27;20269;-59
2023/03/05 03:47:45;;;;;;;1.65;1.55;;;;;;;;;;5132202;27;20195;-59
2023/03/05 03:50:13;;;;;;;1.85;1.42;;;;;;;;;;5121889;28;20647;-59
2023/03/05 03:52:40;;;;;;;1.80;1.50;;;;;;;;;;5122206;28;20243;-59
2023/03/05 03:55:08;;;;;;;1.50;1.40;;;;;;;;;;5121367;28;20314;-59
2023/03/05 03:57:35;;;;;;;1.40;1.30;;;;;;;;;;5121762;28;20223;-59
2023/03/05 04:00:05;;;;;;;1.70;1.60;;;;;;;;;;5122376;28;20238;-59
2023/03/05 04:02:33;;;;;;;1.92;1.60;;;;;;;;;;5122320;27;20250;-59
2023/03/05 04:05:02;;;;;;;1.50;1.40;;;;;;;;;;5121762;28;20613;-59
2023/03/05 04:07:29;;;;;;;1.30;1.20;;;;;;;;;;5124986;27;20236;-59
2023/03/05 04:09:57;;;;;;;1.42;1.30;;;;;;;;;;5141655;27;20222;-59
2023/03/05 04:12:24;;;;;;;2.28;1.33;;;;;;;;;;5142229;27;20741;-59
2023/03/05 04:14:52;;;;;;;1.33;1.23;;;;;;;;;;5127760;27;20304;-59
2023/03/05 04:17:19;;;;;;;1.40;1.20;;;;;;;;;;5121885;28;20266;-59
2023/03/05 04:19:47;;;;;;;1.60;1.20;;;;;;;;;;5121910;28;20294;-59
2023/03/05 04:22:16;;;;;;;1.30;1.10;;;;;;;;;;5121510;28;20614;-59
2023/03/05 04:24:44;;;;;;;1.10;1.00;;;;;;;;;;5122149;28;20305;-59
2023/03/05 04:27:11;;;;;;;1.30;1.00;;;;;;;;;;5136695;27;20246;-59
2023/03/05 04:29:39;;;;;;;1.40;1.10;;;;;;;;;;5142057;27;20308;-60
2023/03/05 04:32:07;;;;;;;1.30;1.20;;;;;;;;;;5142009;27;20534;-59
2023/03/05 04:34:34;;;;;;;1.17;1.00;;;;;;;;;;5142506;27;20304;-59
2023/03/05 04:37:02;;;;;;;1.27;1.17;;;;;;;;;;5141822;27;20668;-59
2023/03/05 04:39:30;;;;;;;1.30;1.20;;;;;;;;;;5141785;27;20206;-59
2023/03/05 04:41:58;;;;;;;1.17;1.00;;;;;;;;;;5142569;27;20234;-59
2023/03/05 04:44:25;;;;;;;1.20;1.08;;;;;;;;;;5141776;27;20611;-59
2023/03/05 04:46:53;;;;;;;1.20;1.10;;;;;;;;;;5141013;27;20380;-59
2023/03/05 04:49:21;;;;;;;0.93;0.88;;;;;;;;;;5141726;27;20641;-59
2023/03/05 04:51:48;;;;;;;1.10;0.80;;;;;;;;;;5141451;27;20248;-59
2023/03/05 04:54:16;;;;;;;1.20;0.90;;;;;;;;;;5141400;27;20296;-59
2023/03/05 04:56:45;;;;;;;0.95;0.77;;;;;;;;;;5140767;27;20308;-59
2023/03/05 04:59:12;;;;;;;1.05;0.80;;;;;;;;;;5141529;27;20459;-59
2023/03/05 05:01:41;;;;;;;0.95;0.85;;;;;;;;;;5141042;27;20292;-59
2023/03/05 05:04:09;;;;;;;1.27;1.02;;;;;;;;;;5121752;27;20214;-59
2023/03/05 05:06:37;;;;;;;1.00;0.90;;;;;;;;;;5120607;28;20282;-59
2023/03/05 05:09:04;;;;;;;1.77;0.82;;;;;;;;;;5120255;28;20297;-59
2023/03/05 05:11:32;;;;;;;0.95;0.73;;;;;;;;;;5120429;28;20245;-59
2023/03/05 05:14:01;;;;;;;1.00;0.70;;;;;;;;;;5119915;28;20571;-59
2023/03/05 05:16:28;;;;;;;1.20;0.88;;;;;;;;;;5120173;28;20294;-59
2023/03/05 05:18:55;;;;;;;1.42;0.90;;;;;;;;;;5120172;28;20246;-59
2023/03/05 05:21:23;;;;;;;0.80;0.70;;;;;;;;;;5119979;28;20293;-59
2023/03/05 05:23:50;;;;;;;1.00;1.00;;;;;;;;;;5119677;28;20199;-59
2023/03/05 05:26:18;;;;;;;0.88;0.60;;;;;;;;;;5120164;28;20568;-59
2023/03/05 05:28:45;;;;;;;1.30;0.80;;;;;;;;;;5120732;28;20246;-59
2023/03/05 05:31:16;;;;;;;0.85;0.70;;;;;;;;;;5120526;28;20252;-59
2023/03/05 05:33:43;;;;;;;1.05;0.95;;;;;;;;;;5119775;28;20297;-59
2023/03/05 05:36:12;;;;;;;0.85;0.70;;;;;;;;;;5119187;28;20286;-59
2023/03/05 05:38:40;;;;;;;1.00;0.80;;;;;;;;;;5119834;28;20537;-58
2023/03/05 05:41:08;;;;;;;1.08;0.70;;;;;;;;;;5119948;28;20305;-59
2023/03/05 05:43:35;;;;;;;0.80;0.70;;;;;;;;;;5119657;28;20249;-59
2023/03/05 05:46:04;;;;;;;1.15;0.75;;;;;;;;;;5119575;28;20291;-59
2023/03/05 05:48:33;;;;;;;0.88;0.80;;;;;;;;;;5119863;28;20203;-59
2023/03/05 05:51:05;;;;;;;1.08;0.70;;;;;;;;;;5119874;28;20293;-59
2023/03/05 05:53:32;;;;;;;0.68;0.55;;;;;;;;;;5119908;28;20293;-59
2023/03/05 05:56:00;;;;;;;1.08;0.70;;;;;;;;;;5119902;28;20238;-59
2023/03/05 05:58:27;;;;;;;1.02;0.73;;;;;;;;;;5118166;28;20314;-59
2023/03/05 06:00:55;;;;;;;0.80;0.70;;;;;;;;;;5119469;28;20630;-59
2023/03/05 06:03:22;;;;;;;0.50;0.50;;;;;;;;;;5131741;27;20288;-59
2023/03/05 06:05:52;;;;;;;0.65;0.52;;;;;;;;;;5139756;27;20647;-59
2023/03/05 06:08:19;;;;;;;0.80;0.50;;;;;;;;;;5140214;27;20792;-59
2023/03/05 06:10:53;;;;;;;1.20;0.63;;;;;;;;;;5140188;27;20253;-58
2023/03/05 06:13:21;;;;;;;1.05;0.75;;;;;;;;;;5139524;27;20301;-59
2023/03/05 06:15:56;;;;;;;0.68;0.68;;;;;;;;;;5140063;27;20665;-59
2023/03/05 06:18:23;;;;;;;0.77;0.50;;;;;;;;;;5139629;27;20594;-59
2023/03/05 06:20:56;;;;;;;0.52;0.47;;;;;;;;;;5139744;27;20297;-60
2023/03/05 06:23:24;;;;;;;0.65;0.60;;;;;;;;;;5139666;27;20301;-59
2023/03/05 06:25:51;;;;;;;0.85;0.55;;;;;;;;;;5139737;27;20289;-59
2023/03/05 06:28:19;;;;;;;0.70;0.70;;;;;;;;;;5139869;27;20302;-59
2023/03/05 06:30:46;;;;;;;0.57;0.47;;;;;;;;;;5139613;27;20293;-59
2023/03/05 06:33:14;;;;;;;0.88;0.60;;;;;;;;;;5139502;27;20241;-59
2023/03/05 06:35:42;;;;;;;0.55;0.50;;;;;;;;;;5139367;27;20293;-59
2023/03/05 06:38:10;;;;;;;0.93;0.73;;;;;;;;;;5139563;27;20704;-60
2023/03/05 06:40:39;;;;;;;0.50;0.50;;;;;;;;;;5139068;27;20293;-59
2023/03/05 06:43:07;;;;;;;0.60;0.50;;;;;;;;;;5138920;27;20210;-60
2023/03/05 06:45:34;;;;;;;0.60;0.50;;;;;;;;;;5139113;27;20202;-60
2023/03/05 06:48:02;;;;;;;0.50;0.40;;;;;;;;;;5139493;27;20206;-59
2023/03/05 06:50:29;;;;;;;0.80;0.50;;;;;;;;;;5138507;27;20222;-59
2023/03/05 06:52:57;;;;;;;0.77;0.40;;;;;;;;;;5139052;27;20301;-59
2023/03/05 06:55:26;;;;;;;0.80;0.60;;;;;;;;;;5139697;27;20796;-59
2023/03/05 06:57:53;;;;;;;0.88;0.70;;;;;;;;;;5139160;27;20226;-59
2023/03/05 07:00:23;;;;;;;0.60;0.40;;;;;;;;;;5138908;27;20574;-59
2023/03/05 07:02:50;;;;;;;0.60;0.50;;;;;;;;;;5130922;27;20217;-59
2023/03/05 07:05:18;;;;;;;0.50;0.40;;;;;;;;;;5118305;28;20629;-60
2023/03/05 07:07:45;;;;;;;0.50;0.40;;;;;;;;;;5118354;28;20633;-60
2023/03/05 07:10:13;;;;;;;0.70;0.50;;;;;;;;;;5118258;28;20249;-59
2023/03/05 07:12:42;;;;;;;0.30;0.30;;;;;;;;;;5118210;28;20206;-59
2023/03/05 07:15:10;;;;;;;0.95;0.40;;;;;;;;;;5135273;28;20577;-59
2023/03/05 07:17:37;;;;;;;0.60;0.60;;;;;;;;;;5138985;28;20594;-59
2023/03/05 07:20:05;;;;;;;0.70;0.45;;;;;;;;;;5138369;27;20285;-59
2023/03/05 07:22:32;;;;;;;0.60;0.45;;;;;;;;;;5138546;28;20547;-59
2023/03/05 07:25:00;;;;;;;0.50;0.47;;;;;;;;;;5138038;28;20292;-59
2023/03/05 07:27:27;;;;;;;0.82;0.50;;;;;;;;;;5134470;28;20293;-59
2023/03/05 07:29:56;;;;;;;0.60;0.50;;;;;;;;;;5134055;28;20245;-59
2023/03/05 07:32:24;;;;;;;0.40;0.40;;;;;;;;;;5138178;28;20263;-59
2023/03/05 07:34:51;;;;;;;0.43;0.40;;;;;;;;;;5138806;28;20237;-59
2023/03/05 07:37:18;;;;;;;0.50;0.50;;;;;;;;;;5138456;28;20249;-60
2023/03/05 07:39:46;;;;;;;0.60;0.50;;;;;;;;;;5138190;28;20293;-60
2023/03/05 07:42:13;;;;;;;0.43;0.32;;;;;;;;;;5138481;28;20294;-61
2023/03/05 07:44:41;;;;;;;0.40;0.40;;;;;;;;;;5138359;28;20298;-59
2023/03/05 07:47:10;;;;;;;1.10;0.60;;;;;;;;;;5138914;28;20241;-59
2023/03/05 07:49:38;;;;;;;0.65;0.40;;;;;;;;;;5138402;28;20248;-59
2023/03/05 07:52:07;;;;;;;0.40;0.40;;;;;;;;;;5138115;28;20203;-59
2023/03/05 07:54:36;;;;;;;0.47;0.45;;;;;;;;;;5137725;28;20261;-60
2023/03/05 07:57:04;;;;;;;0.63;0.40;;;;;;;;;;5137879;28;20238;-59
2023/03/05 07:59:31;;;;;;;0.60;0.50;;;;;;;;;;5138094;28;20226;-59
2023/03/05 08:01:59;;;;;;;0.60;0.50;;;;;;;;;;5137881;28;20289;-59
2023/03/05 08:04:30;;;;;;;0.50;0.50;;;;;;;;;;5138414;28;20206;-59
2023/03/05 08:06:58;;;;;;;0.50;0.40;;;;;;;;;;5138159;28;20202;-59
2023/03/05 08:09:26;;;;;;;1.27;0.40;;;;;;;;;;5138076;28;20291;-59
2023/03/05 08:11:53;;;;;;;0.65;0.40;;;;;;;;;;5138069;28;20245;-59
2023/03/05 08:14:20;;;;;;;0.40;0.40;;;;;;;;;;5138046;28;20329;-61
2023/03/05 08:16:51;;;;;;;0.30;0.22;;;;;;;;;;5137911;28;20578;-58
2023/03/05 08:19:18;;;;;;;0.35;0.30;;;;;;;;;;5137781;28;20287;-59
2023/03/05 08:21:48;;;;;;;0.60;0.50;;;;;;;;;;5138950;27;20206;-59
2023/03/05 08:24:15;;;;;;;0.40;0.40;;;;;;;;;;5141404;27;20267;-58
2023/03/05 08:26:43;;;;;;;0.85;0.50;;;;;;;;;;5140253;27;20335;-61
2023/03/05 08:29:11;;;;;;;0.40;0.40;;;;;;;;;;5141664;27;20280;-58
2023/03/05 08:31:39;;;;;;;0.40;0.40;;;;;;;;;;5141250;27;20202;-59
2023/03/05 08:34:06;;;;;;;0.50;0.40;;;;;;;;;;5140815;27;20301;-59
2023/03/05 08:36:34;;;;;;;0.60;0.40;;;;;;;;;;5141360;27;20304;-59
2023/03/05 08:39:05;;;;;;;0.50;0.40;;;;;;;;;;5141836;27;20317;-59
2023/03/05 08:41:32;;;;;;;0.55;0.40;;;;;;;;;;5141568;27;20210;-59
2023/03/05 08:44:00;;;;;;;0.55;0.40;;;;;;;;;;5141647;27;20306;-61
2023/03/05 08:46:27;;;;;;;0.30;0.30;;;;;;;;;;5140735;27;20298;-59
2023/03/05 08:48:55;;;;;;;0.40;0.40;;;;;;;;;;5141056;27;20289;-59
2023/03/05 08:51:24;;;;;;;0.40;0.35;;;;;;;;;;5140764;27;20206;-60
2023/03/05 08:53:52;;;;;;;0.40;0.40;;;;;;;;;;5141193;27;20222;-59
2023/03/05 08:56:21;;;;;;;0.50;0.40;;;;;;;;;;5140884;27;20581;-59
2023/03/05 08:58:50;;;;;;;0.50;0.50;;;;;;;;;;5141067;27;20317;-59
2023/03/05 09:01:18;;;;;;;1.30;0.40;;;;;;;;;;5140750;27;20202;-59
2023/03/05 09:03:45;;;;;;;0.90;0.40;;;;;;;;;;5139966;27;20199;-59
2023/03/05 09:06:13;;;;;;;0.50;0.40;;;;;;;;;;5140155;27;20301;-59
2023/03/05 09:08:40;;;;;;;0.47;0.40;;;;;;;;;;5140011;27;20281;-60
2023/03/05 09:11:09;;;;;;;2.05;0.50;;;;;;;;;;5140469;27;20293;-59
2023/03/05 09:13:39;;;;;;;0.60;0.38;;;;;;;;;;5140679;27;20337;-59
2023/03/05 09:16:07;;;;;;;0.68;0.40;;;;;;;;;;5140349;27;20297;-59
2023/03/05 09:18:35;;;;;;;0.73;0.40;;;;;;;;;;5139853;27;20225;-59
2023/03/05 09:21:05;;;;;;;2.05;0.47;;;;;;;;;;5140643;27;20209;-59
2023/03/05 09:23:32;;;;;;;1.05;0.40;;;;;;;;;;5140442;27;20312;-59
2023/03/05 09:26:01;;;;;;;0.60;0.43;;;;;;;;;;5140703;27;20668;-59
2023/03/05 09:28:28;;;;;;;0.45;0.40;;;;;;;;;;5140534;27;20279;-59
2023/03/05 09:30:57;;;;;;;0.52;0.43;;;;;;;;;;5140144;27;20213;-59
2023/03/05 09:33:25;;;;;;;0.63;0.40;;;;;;;;;;5140152;27;20284;-58
2023/03/05 09:35:52;;;;;;;1.25;0.40;;;;;;;;;;5139844;27;20307;-59
2023/03/05 09:38:20;;;;;;;1.27;0.47;;;;;;;;;;5140104;27;20309;-59
2023/03/05 09:40:52;;;;;;;1.77;0.60;;;;;;;;;;5139739;27;20252;-59
2023/03/05 09:43:26;;;;;;;0.30;0.30;;;;;;;;;;5139406;27;20296;-59
2023/03/05 09:46:01;;;;;;;0.40;0.40;;;;;;;;;;5139629;27;20297;-59
2023/03/05 09:48:34;;;;;;;0.40;0.40;;;;;;;;;;5139947;27;20297;-58
2023/03/05 09:51:02;;;;;;;0.77;0.47;;;;;;;;;;5139961;27;20305;-59
2023/03/05 09:53:35;;;;;;;0.75;0.40;;;;;;;;;;5139503;27;20293;-59
2023/03/05 09:56:05;;;;;;;0.50;0.35;;;;;;;;;;5139549;27;20201;-59
2023/03/05 09:58:35;;;;;;;1.00;0.50;;;;;;;;;;5139112;27;20316;-59
2023/03/05 10:01:06;;;;;;;0.75;0.40;;;;;;;;;;5139384;27;20321;-60
2023/03/05 10:03:37;;;;;;;0.40;0.40;;;;;;;;;;5138307;27;20222;-59
2023/03/05 10:06:06;;;;;;;0.40;0.40;;;;;;;;;;5139253;27;20265;-60
2023/03/05 10:08:43;;;;;;;1.20;0.45;;;;;;;;;;5139360;27;20301;-59
2023/03/05 10:11:17;;;;;;;0.90;0.55;;;;;;;;;;5138848;27;20301;-59
2023/03/05 10:13:46;;;;;;;1.52;0.40;;;;;;;;;;5138986;27;20575;-60
2023/03/05 10:16:27;;;;;;;1.83;0.40;;;;;;;;;;5138625;27;20202;-59
2023/03/05 10:19:00;;;;;;;1.60;0.40;;;;;;;;;;5139049;27;20320;-59
2023/03/05 10:21:31;;;;;;;1.50;0.45;;;;;;;;;;5138304;27;20392;-59
2023/03/05 10:24:01;;;;;;;1.23;0.50;;;;;;;;;;5137905;27;20198;-59
2023/03/05 10:26:34;;;;;;;0.40;0.32;;;;;;;;;;5138813;27;20199;-59
2023/03/05 10:29:12;;;;;;;1.58;0.55;;;;;;;;;;5138940;27;20630;-60
2023/03/05 10:31:46;;;;;;;1.95;1.00;;;;;;;;;;5138311;27;20292;-60
2023/03/05 10:34:26;;;;;;;9.05;6.30;;;;;;;;;;5138583;27;20197;-59
2023/03/05 10:36:58;;;;;;;7.90;5.60;;;;;;;;;;5138555;27;20210;-59
2023/03/05 10:39:44;;;;;;;8.52;5.28;;;;;;;;;;5138263;27;20249;-59
2023/03/05 10:42:17;;;;;;;7.85;4.90;;;;;;;;;;5138828;27;20237;-59
2023/03/05 10:44:47;;;;;;;7.10;4.72;;;;;;;;;;5138030;27;20323;-59
2023/03/05 10:47:21;;;;;;;7.00;4.88;;;;;;;;;;5138515;27;20285;-59
2023/03/05 10:49:51;;;;;;;6.22;4.63;;;;;;;;;;5138411;27;20198;-59
2023/03/05 10:52:21;;;;;;;6.57;4.88;;;;;;;;;;5138728;27;20310;-59
2023/03/05 10:54:48;;;;;;;5.90;4.57;;;;;;;;;;5138773;27;20202;-59
2023/03/05 10:57:18;;;;;;;6.68;4.15;;;;;;;;;;5138341;27;20579;-59
2023/03/05 10:59:48;;;;;;;7.55;5.43;;;;;;;;;;5138010;27;20320;-59
2023/03/05 11:02:17;;;;;;;10.55;9.15;;;;;;;;;;5135097;27;20545;-59
2023/03/05 11:04:46;;;;;;;13.98;11.27;;;;;;;;;;5117331;28;20301;-59
2023/03/05 11:07:36;;;;;;;11.82;10.50;;;;;;;;;;5116638;28;20207;-59
2023/03/05 11:10:19;;;;;;;10.68;9.57;;;;;;;;;;5116754;28;20194;-59
2023/03/05 11:12:46;;;;;;;10.63;9.43;;;;;;;;;;5115365;28;20206;-59
2023/03/05 11:15:26;;;;;;;10.70;8.43;;;;;;;;;;5135610;27;20240;-59
2023/03/05 11:18:23;;;;;;;9.32;8.43;;;;;;;;;;5138391;27;20212;-59
2023/03/05 11:20:51;;;;;;;9.35;8.18;;;;;;;;;;5080405;28;20593;-59
2023/03/05 11:23:22;;;;;;;10.18;8.45;;;;;;;;;;5138838;27;20241;-59
2023/03/05 11:25:52;;;;;;;10.27;8.13;;;;;;;;;;5138209;27;20206;-59
2023/03/05 11:28:21;;;;;;;8.23;7.40;;;;;;;;;;5137897;27;20603;-59
2023/03/05 11:30:56;;;;;;;8.82;7.65;;;;;;;;;;5138454;27;20238;-60
2023/03/05 11:33:23;;;;;;;9.15;8.20;;;;;;;;;;5137442;27;20302;-59
2023/03/05 11:35:53;;;;;;;10.98;8.38;;;;;;;;;;5136362;27;20637;-59
2023/03/05 11:38:23;;;;;;;9.88;7.10;;;;;;;;;;5130919;27;20281;-60
2023/03/05 11:40:52;;;;;;;10.27;7.70;;;;;;;;;;5126482;28;20222;-59
2023/03/05 11:43:20;;;;;;;11.10;8.00;;;;;;;;;;5117619;28;20203;-59
2023/03/05 11:45:49;;;;;;;9.48;7.13;;;;;;;;;;5116864;28;20289;-59
2023/03/05 11:48:19;;;;;;;9.57;6.40;;;;;;;;;;5117208;28;20295;-59
2023/03/05 11:50:50;;;;;;;11.10;6.65;;;;;;;;;;5117055;28;20242;-59
2023/03/05 11:53:22;;;;;;;8.63;6.32;;;;;;;;;;5117106;28;20199;-59
2023/03/05 11:55:52;;;;;;;7.78;6.28;;;;;;;;;;5116575;28;20249;-59
2023/03/05 11:58:29;;;;;;;9.68;6.22;;;;;;;;;;5120944;28;20203;-59
2023/03/05 12:00:57;;;;;;;7.35;6.07;;;;;;;;;;5119955;28;20298;-59
2023/03/05 12:03:26;;;;;;;9.35;5.82;;;;;;;;;;5122845;27;20227;-59
2023/03/05 12:05:55;;;;;;;6.97;5.60;;;;;;;;;;5136134;27;20199;-59
2023/03/05 12:08:26;;;;;;;9.68;5.80;;;;;;;;;;5137952;27;20241;-59
2023/03/05 12:10:54;;;;;;;6.88;5.28;;;;;;;;;;5120321;28;20347;-59
2023/03/05 12:13:28;;;;;;;7.43;5.30;;;;;;;;;;5116745;28;20570;-59
2023/03/05 12:16:02;;;;;;;6.85;5.30;;;;;;;;;;5099917;28;20203;-59
2023/03/05 12:18:34;;;;;;;8.35;5.40;;;;;;;;;;5099599;28;20234;-59
2023/03/05 12:21:06;;;;;;;8.02;6.30;;;;;;;;;;5099448;28;20298;-59
2023/03/05 12:23:46;;;;;;;9.23;6.30;;;;;;;;;;5099516;28;20238;-59
2023/03/05 12:26:14;;;;;;;6.95;5.65;;;;;;;;;;5098452;28;20273;-59
2023/03/05 12:29:00;;;;;;;6.55;5.35;;;;;;;;;;5099783;28;20306;-59
2023/03/05 12:31:37;;;;;;;7.40;5.57;;;;;;;;;;5099468;28;20268;-59
2023/03/05 12:34:20;;;;;;;7.70;4.82;;;;;;;;;;5099595;28;20213;-59
2023/03/05 12:36:47;;;;;;;8.20;5.00;;;;;;;;;;5064469;28;20286;-60
2023/03/05 12:39:33;;;;;;;8.95;4.35;;;;;;;;;;5099375;28;20318;-59
2023/03/05 12:42:22;;;;;;;7.70;4.60;;;;;;;;;;5100149;28;20302;-59
2023/03/05 12:45:18;;;;;;;8.20;4.55;;;;;;;;;;5099376;28;20235;-59
2023/03/05 12:47:46;;;;;;;8.38;4.15;;;;;;;;;;5099893;28;20296;-59
2023/03/05 12:50:28;;;;;;;21.15;18.95;;;;;;;;;;5099650;28;20295;-59
2023/03/05 12:52:56;;;;;;;30.38;27.00;;;;;;;;;;5098490;28;20298;-59
2023/03/05 12:55:24;;;;;;;29.20;26.35;;;;;;;;;;5098288;28;20280;-59
2023/03/05 12:57:57;;;;;;;29.30;26.27;;;;;;;;;;5099183;28;20306;-60
2023/03/05 13:00:27;;;;;;;28.05;24.63;;;;;;;;;;5099175;28;20326;-59
2023/03/05 13:02:57;;;;;;;24.83;22.35;;;;;;;;;;5098683;28;20258;-59
2023/03/05 13:05:27;;;;;;;24.45;20.80;;;;;;;;;;5104068;28;20207;-59
2023/03/05 13:07:54;;;;;;;21.45;19.30;;;;;;;;;;5115944;28;20199;-60
2023/03/05 13:10:22;;;;;;;21.33;18.75;;;;;;;;;;5119085;28;20401;-59
2023/03/05 13:12:51;;;;;;;19.80;17.85;;;;;;;;;;5119313;28;20206;-59
2023/03/05 13:15:21;;;;;;;18.10;16.17;;;;;;;;;;5137917;27;20226;-59
2023/03/05 13:17:52;;;;;;;18.23;16.25;;;;;;;;;;5139646;27;20256;-59
2023/03/05 13:20:29;;;;;;;18.23;15.65;;;;;;;;;;5138880;27;20321;-59
2023/03/05 13:23:15;;;;;;;16.63;14.35;;;;;;;;;;5131916;27;20205;-59
2023/03/05 13:25:42;;;;;;;15.15;13.57;;;;;;;;;;5139949;27;20488;-59
2023/03/05 13:28:12;;;;;;;14.10;12.60;;;;;;;;;;5139369;27;20356;-59
2023/03/05 13:30:45;;;;;;;13.40;12.00;;;;;;;;;;5139764;27;20297;-59
2023/03/05 13:33:17;;;;;;;13.57;12.07;;;;;;;;;;5139146;27;20309;-59
2023/03/05 13:35:45;;;;;;;14.15;11.10;;;;;;;;;;5139040;27;20310;-60
2023/03/05 13:38:21;;;;;;;14.45;10.75;;;;;;;;;;5138788;27;20202;-59
2023/03/05 13:41:01;;;;;;;11.98;10.32;;;;;;;;;;5138606;27;20264;-60
2023/03/05 13:43:29;;;;;;;11.63;9.40;;;;;;;;;;5139088;27;20237;-59
2023/03/05 13:45:58;;;;;;;10.00;8.90;;;;;;;;;;5138952;27;20296;-59
2023/03/05 13:48:26;;;;;;;10.93;8.98;;;;;;;;;;5138533;27;20256;-59
2023/03/05 13:50:56;;;;;;;10.05;8.23;;;;;;;;;;5138792;27;20206;-60
2023/03/05 13:53:24;;;;;;;9.10;7.70;;;;;;;;;;5139195;27;20217;-59
2023/03/05 13:55:53;;;;;;;8.75;7.85;;;;;;;;;;5139426;27;20293;-59
2023/03/05 13:58:40;;;;;;;8.25;7.38;;;;;;;;;;5138440;27;20202;-59
2023/03/05 14:01:14;;;;;;;11.30;7.40;;;;;;;;;;5138315;27;20265;-59
2023/03/05 14:03:41;;;;;;;8.93;6.60;;;;;;;;;;5138728;27;20301;-59
2023/03/05 14:06:10;;;;;;;7.85;6.50;;;;;;;;;;5138061;27;20297;-59
2023/03/05 14:08:38;;;;;;;9.48;6.88;;;;;;;;;;5138586;27;20234;-59
2023/03/05 14:11:15;;;;;;;10.95;6.38;;;;;;;;;;5137947;27;20300;-59
2023/03/05 14:13:43;;;;;;;8.27;5.85;;;;;;;;;;5137531;27;20321;-59
2023/03/05 14:16:13;;;;;;;6.93;5.43;;;;;;;;;;5137342;27;20288;-59
2023/03/05 14:18:52;;;;;;;8.82;5.78;;;;;;;;;;5137066;27;20289;-59
2023/03/05 14:21:19;;;;;;;6.25;5.05;;;;;;;;;;5137507;27;20322;-60
2023/03/05 14:23:50;;;;;;;6.32;4.90;;;;;;;;;;5130391;27;20592;-59
2023/03/05 14:26:28;;;;;;;7.95;5.07;;;;;;;;;;5136313;27;20199;-59
2023/03/05 14:28:57;;;;;;;8.00;4.57;;;;;;;;;;5137505;27;20285;-59
2023/03/05 14:31:27;;;;;;;7.40;4.57;;;;;;;;;;5137775;27;20266;-59
2023/03/05 14:33:55;;;;;;;6.10;4.60;;;;;;;;;;5132746;27;20226;-59
2023/03/05 14:36:25;;;;;;;5.72;4.03;;;;;;;;;;5117468;28;20302;-59
2023/03/05 14:38:53;;;;;;;6.50;4.18;;;;;;;;;;5117201;28;20211;-59
2023/03/05 14:41:33;;;;;;;7.22;4.25;;;;;;;;;;5116539;28;20317;-59
2023/03/05 14:44:01;;;;;;;5.43;4.07;;;;;;;;;;5117331;28;20202;-59
2023/03/05 14:46:30;;;;;;;4.63;3.85;;;;;;;;;;5125552;27;20625;-60
2023/03/05 14:48:57;;;;;;;4.35;3.50;;;;;;;;;;5137629;27;20242;-59
2023/03/05 14:51:26;;;;;;;6.75;3.47;;;;;;;;;;5136640;27;20292;-59
2023/03/05 14:53:53;;;;;;;3.70;3.40;;;;;;;;;;5136842;27;20681;-60
2023/03/05 14:56:23;;;;;;;5.15;3.67;;;;;;;;;;5137473;27;20194;-59